createdAt,value
2023-03-02T00:02:21.279Z,57.60
2023-03-02T00:04:56.776Z,57.80
2023-03-02T00:07:31.943Z,57.80
2023-03-02T00:09:59.180Z,57.90
2023-03-02T00:12:30.934Z,57.80
2023-03-02T00:14:57.648Z,58.00
2023-03-02T00:17:27.894Z,57.80
2023-03-02T00:19:55.462Z,57.80
2023-03-02T00:22:22.221Z,57.90
2023-03-02T00:24:48.934Z,57.80
2023-03-02T00:27:15.895Z,57.90
2023-03-02T00:29:42.670Z,57.80
2023-03-02T00:32:09.545Z,58.00
2023-03-02T00:34:36.372Z,58.00
2023-03-02T00:37:03.088Z,58.00
2023-03-02T00:39:30.343Z,58.10
2023-03-02T00:41:57.090Z,58.20
2023-03-02T00:44:23.959Z,58.20
2023-03-02T00:46:50.744Z,58.30
2023-03-02T00:49:17.579Z,58.30
2023-03-02T00:51:44.279Z,58.20
2023-03-02T00:54:11.034Z,58.20
2023-03-02T00:56:37.931Z,58.30
2023-03-02T00:59:11.083Z,58.20
2023-03-02T01:01:38.124Z,58.30
2023-03-02T01:04:05.434Z,58.30
2023-03-02T01:06:32.726Z,58.30
2023-03-02T01:08:59.634Z,58.40
2023-03-02T01:11:26.375Z,58.40
2023-03-02T01:13:53.146Z,58.40
2023-03-02T01:16:20.032Z,58.40
2023-03-02T01:18:46.879Z,58.40
2023-03-02T01:21:15.601Z,58.40
2023-03-02T01:23:42.710Z,58.40
2023-03-02T01:26:09.662Z,58.40
2023-03-02T01:28:36.774Z,58.50
2023-03-02T01:31:04.523Z,58.50
2023-03-02T01:33:31.754Z,58.60
2023-03-02T01:35:58.694Z,58.50
2023-03-02T01:38:25.900Z,58.50
2023-03-02T01:40:52.703Z,58.50
2023-03-02T01:43:19.548Z,58.40
2023-03-02T01:45:53.700Z,58.50
2023-03-02T01:48:58.856Z,58.50
2023-03-02T01:51:47.336Z,58.60
2023-03-02T01:54:23.078Z,58.50
2023-03-02T01:56:57.107Z,58.60
2023-03-02T01:59:24.717Z,58.50
2023-03-02T02:01:54.454Z,58.70
2023-03-02T02:04:23.697Z,58.70
2023-03-02T02:06:55.737Z,58.60
2023-03-02T02:09:24.426Z,58.50
2023-03-02T02:11:52.220Z,58.60
2023-03-02T02:14:19.019Z,58.60
2023-03-02T02:16:46.538Z,58.60
2023-03-02T02:19:43.804Z,58.60
2023-03-02T02:22:11.622Z,58.80
2023-03-02T02:24:48.557Z,58.60
2023-03-02T02:27:15.741Z,58.80
2023-03-02T02:29:48.500Z,58.70
2023-03-02T02:32:27.289Z,58.80
2023-03-02T02:34:58.816Z,58.80
2023-03-02T02:37:42.388Z,58.80
2023-03-02T02:40:22.860Z,59.00
2023-03-02T02:42:52.269Z,59.20
2023-03-02T02:45:21.394Z,59.10
2023-03-02T02:47:49.417Z,59.50
2023-03-02T02:50:31.306Z,59.20
2023-03-02T02:53:03.148Z,59.40
2023-03-02T02:55:30.460Z,59.30
2023-03-02T02:57:59.606Z,59.30
2023-03-02T03:00:26.500Z,59.30
2023-03-02T03:03:02.028Z,59.40
2023-03-02T03:05:29.106Z,59.50
2023-03-02T03:08:10.043Z,59.50
2023-03-02T03:10:40.496Z,59.60
2023-03-02T03:13:10.284Z,59.50
2023-03-02T03:15:37.766Z,59.50
2023-03-02T03:18:04.927Z,59.60
2023-03-02T03:20:32.759Z,59.60
2023-03-02T03:23:00.753Z,59.70
2023-03-02T03:25:29.406Z,59.70
2023-03-02T03:27:56.494Z,60.00
2023-03-02T03:30:23.710Z,59.80
2023-03-02T03:32:50.455Z,59.80
2023-03-02T03:35:17.283Z,59.80
2023-03-02T03:37:45.731Z,59.90
2023-03-02T03:40:14.247Z,59.90
2023-03-02T03:42:43.409Z,59.90
2023-03-02T03:45:10.274Z,59.90
2023-03-02T03:47:38.508Z,60.00
2023-03-02T03:50:08.371Z,60.00
2023-03-02T03:52:35.484Z,60.00
2023-03-02T03:55:20.601Z,60.00
2023-03-02T03:57:49.130Z,60.10
2023-03-02T04:00:19.949Z,60.00
2023-03-02T04:02:52.218Z,60.10
2023-03-02T04:05:19.920Z,60.10
2023-03-02T04:07:50.562Z,60.10
2023-03-02T04:10:17.650Z,60.10
2023-03-02T04:12:45.616Z,60.10
2023-03-02T04:15:15.726Z,60.20
2023-03-02T04:17:44.996Z,60.20
2023-03-02T04:20:17.484Z,60.20
2023-03-02T04:22:49.756Z,60.20
2023-03-02T04:25:21.452Z,60.10
2023-03-02T04:27:51.432Z,60.20
2023-03-02T04:30:22.832Z,60.30
2023-03-02T04:32:49.856Z,60.20
2023-03-02T04:35:17.186Z,60.20
2023-03-02T04:37:44.783Z,60.30
2023-03-02T04:40:12.701Z,60.30
2023-03-02T04:42:39.417Z,60.30
2023-03-02T04:45:06.804Z,60.30
2023-03-02T04:47:33.561Z,60.30
2023-03-02T04:50:00.286Z,60.20
2023-03-02T04:52:27.055Z,60.30
2023-03-02T04:54:53.792Z,60.30
2023-03-02T04:57:20.491Z,60.20
2023-03-02T04:59:47.218Z,60.30
2023-03-02T05:02:14.142Z,60.40
2023-03-02T05:04:42.296Z,60.40
2023-03-02T05:07:09.263Z,60.50
2023-03-02T05:09:36.119Z,60.40
2023-03-02T05:12:02.875Z,60.40
2023-03-02T05:14:31.325Z,60.40
2023-03-02T05:16:58.253Z,60.40
2023-03-02T05:19:24.971Z,60.40
2023-03-02T05:21:51.718Z,60.40
2023-03-02T05:24:18.465Z,60.50
2023-03-02T05:26:45.194Z,60.50
2023-03-02T05:29:11.963Z,60.50
2023-03-02T05:31:41.644Z,60.50
2023-03-02T05:34:10.338Z,60.50
2023-03-02T05:36:37.839Z,60.90
2023-03-02T05:39:05.267Z,60.60
2023-03-02T05:41:31.973Z,60.70
2023-03-02T05:43:59.159Z,60.70
2023-03-02T05:46:26.002Z,60.80
2023-03-02T05:48:52.796Z,60.80
2023-03-02T05:51:19.515Z,60.80
2023-03-02T05:53:46.668Z,60.80
2023-03-02T05:56:13.356Z,60.80
2023-03-02T05:58:40.055Z,60.80
2023-03-02T06:01:13.569Z,60.80
2023-03-02T06:03:42.220Z,60.90
2023-03-02T06:06:08.944Z,60.70
2023-03-02T06:08:40.904Z,60.90
2023-03-02T06:11:08.367Z,60.80
2023-03-02T06:13:35.212Z,60.90
2023-03-02T06:16:02.200Z,60.90
2023-03-02T06:18:29.017Z,60.90
2023-03-02T06:20:55.758Z,60.90
2023-03-02T06:23:23.017Z,60.90
2023-03-02T06:25:49.863Z,60.90
2023-03-02T06:28:19.831Z,60.90
2023-03-02T06:30:48.663Z,60.90
2023-03-02T06:33:18.092Z,60.90
2023-03-02T06:35:45.301Z,61.00
2023-03-02T06:38:12.067Z,61.00
2023-03-02T06:40:38.929Z,61.10
2023-03-02T06:43:05.679Z,61.10
2023-03-02T06:45:33.869Z,61.10
2023-03-02T06:48:01.620Z,61.20
2023-03-02T06:50:28.749Z,61.20
2023-03-02T06:52:55.718Z,61.20
2023-03-02T06:55:22.608Z,61.20
2023-03-02T06:57:49.360Z,61.20
2023-03-02T07:00:26.011Z,61.20
2023-03-02T07:02:53.129Z,61.20
2023-03-02T07:05:19.997Z,61.30
2023-03-02T07:07:46.879Z,61.30
2023-03-02T07:10:13.703Z,61.40
2023-03-02T07:12:41.395Z,61.40
2023-03-02T07:15:11.204Z,60.40
2023-03-02T07:17:38.954Z,57.20
2023-03-02T07:20:06.717Z,56.80
2023-03-02T07:22:33.603Z,57.70
2023-03-02T07:25:00.360Z,58.60
2023-03-02T07:27:27.198Z,58.30
2023-03-02T07:29:53.959Z,58.50
2023-03-02T07:32:20.760Z,58.80
2023-03-02T07:34:47.563Z,59.20
2023-03-02T07:37:14.270Z,59.40
2023-03-02T07:39:40.981Z,59.50
2023-03-02T07:42:08.939Z,59.80
2023-03-02T07:44:35.740Z,59.90
2023-03-02T07:47:02.460Z,60.00
2023-03-02T07:49:30.045Z,60.20
2023-03-02T07:51:56.756Z,60.40
2023-03-02T07:54:26.453Z,60.60
2023-03-02T07:56:54.081Z,60.70
2023-03-02T07:59:20.805Z,61.10
2023-03-02T08:01:47.578Z,61.30
2023-03-02T08:04:14.376Z,61.50
2023-03-02T08:06:42.532Z,61.50
2023-03-02T08:09:09.365Z,61.80
2023-03-02T08:11:36.121Z,61.80
2023-03-02T08:14:03.587Z,62.10
2023-03-02T08:16:30.840Z,62.20
2023-03-02T08:18:59.890Z,62.40
2023-03-02T08:21:28.052Z,62.40
2023-03-02T08:23:54.990Z,62.70
2023-03-02T08:26:21.857Z,63.00
2023-03-02T08:28:48.675Z,63.30
2023-03-02T08:31:15.768Z,63.50
2023-03-02T08:33:43.775Z,63.60
2023-03-02T08:36:16.631Z,64.00
2023-03-02T08:38:43.695Z,64.50
2023-03-02T08:41:16.488Z,64.70
2023-03-02T08:43:43.280Z,64.60
2023-03-02T08:46:15.216Z,65.30
2023-03-02T08:48:41.979Z,65.60
2023-03-02T08:51:20.255Z,66.00
2023-03-02T08:53:50.402Z,66.80
2023-03-02T08:56:32.191Z,66.90
2023-03-02T08:59:04.373Z,67.40
2023-03-02T09:01:33.536Z,68.00
2023-03-02T09:04:01.314Z,68.30
2023-03-02T09:06:29.732Z,68.70
2023-03-02T09:08:57.242Z,68.80
2023-03-02T09:11:25.032Z,69.10
2023-03-02T09:13:51.759Z,69.20
2023-03-02T09:16:20.275Z,69.40
2023-03-02T09:18:47.664Z,69.70
2023-03-02T09:21:14.361Z,69.80
2023-03-02T09:23:42.492Z,69.90
2023-03-02T09:26:09.546Z,69.80
2023-03-02T09:28:36.954Z,69.80
2023-03-02T09:31:06.414Z,69.50
2023-03-02T09:33:33.231Z,69.50
2023-03-02T09:36:01.503Z,70.00
2023-03-02T09:38:28.320Z,69.20
2023-03-02T09:41:20.447Z,69.00
2023-03-02T09:44:04.523Z,68.90
2023-03-02T09:46:54.516Z,68.60
2023-03-02T09:49:47.162Z,68.20
2023-03-02T09:52:22.828Z,67.70
2023-03-02T09:54:49.622Z,67.30
2023-03-02T09:57:33.900Z,66.90
2023-03-02T10:00:20.720Z,66.60
2023-03-02T10:03:05.075Z,66.10
2023-03-02T10:05:44.336Z,65.70
2023-03-02T10:08:21.303Z,65.20
2023-03-02T10:11:05.828Z,64.80
2023-03-02T10:13:55.906Z,64.20
2023-03-02T10:16:49.844Z,56.60
2023-03-02T10:19:32.337Z,55.10
2023-03-02T10:22:26.004Z,55.10
2023-03-02T10:24:56.928Z,53.70
2023-03-02T10:27:34.956Z,53.70
2023-03-02T10:30:16.816Z,53.30
2023-03-02T10:32:52.048Z,53.40
2023-03-02T10:35:23.220Z,53.30
2023-03-02T10:38:14.859Z,53.50
2023-03-02T10:40:45.540Z,52.90
2023-03-02T10:43:25.481Z,53.20
2023-03-02T10:45:59.251Z,53.00
2023-03-02T10:48:26.027Z,53.00
2023-03-02T10:50:57.240Z,53.40
2023-03-02T10:53:24.362Z,52.90
2023-03-02T10:55:53.561Z,52.60
2023-03-02T10:58:26.556Z,52.40
2023-03-02T11:01:01.558Z,52.30
2023-03-02T11:03:28.921Z,52.40
2023-03-02T11:05:55.915Z,52.10
2023-03-02T11:08:24.929Z,51.80
2023-03-02T11:11:00.574Z,51.70
2023-03-02T11:13:38.908Z,51.50
2023-03-02T11:16:28.443Z,51.00
2023-03-02T11:18:59.396Z,50.50
2023-03-02T11:21:31.124Z,49.20
2023-03-02T11:24:11.120Z,47.90
2023-03-02T11:26:55.572Z,46.40
2023-03-02T11:29:38.954Z,45.90
2023-03-02T11:32:08.560Z,45.20
2023-03-02T11:34:46.678Z,44.60
2023-03-02T11:37:36.196Z,43.80
2023-03-02T11:40:46.999Z,43.80
2023-03-02T11:43:14.015Z,43.20
2023-03-02T11:45:45.265Z,42.70
2023-03-02T11:48:24.598Z,41.50
2023-03-02T11:51:04.403Z,40.20
2023-03-02T11:53:41.947Z,38.00
2023-03-02T11:56:08.821Z,37.60
2023-03-02T11:58:36.044Z,38.50
2023-03-02T12:01:03.505Z,37.80
2023-03-02T12:03:33.399Z,37.20
2023-03-02T12:06:06.077Z,36.60
2023-03-02T12:08:39.167Z,36.00
2023-03-02T12:11:34.038Z,35.50
2023-03-02T12:14:05.271Z,34.80
2023-03-02T12:16:37.997Z,34.80
2023-03-02T12:19:17.987Z,34.20
2023-03-02T12:22:00.933Z,33.40
2023-03-02T12:24:33.135Z,32.90
2023-03-02T12:27:10.367Z,33.00
2023-03-02T12:29:43.796Z,32.60
2023-03-02T12:32:32.677Z,32.60
2023-03-02T12:35:08.595Z,32.50
2023-03-02T12:37:49.333Z,32.40
2023-03-02T12:40:28.020Z,32.30
2023-03-02T12:43:21.197Z,32.60
2023-03-02T12:46:05.561Z,32.70
2023-03-02T12:48:51.263Z,32.80
2023-03-02T12:51:22.627Z,33.00
2023-03-02T12:53:50.898Z,33.20
2023-03-02T12:56:25.162Z,33.30
2023-03-02T12:58:53.221Z,33.20
2023-03-02T13:01:29.080Z,33.40
2023-03-02T13:03:56.457Z,33.40
2023-03-02T13:06:26.269Z,33.60
2023-03-02T13:08:58.538Z,33.50
2023-03-02T13:11:31.820Z,33.50
2023-03-02T13:14:00.777Z,33.60
2023-03-02T13:16:32.491Z,33.70
2023-03-02T13:19:05.950Z,33.70
2023-03-02T13:21:34.992Z,33.60
2023-03-02T13:24:01.792Z,33.70
2023-03-02T13:26:32.169Z,33.70
2023-03-02T13:29:20.545Z,33.60
2023-03-02T13:31:47.382Z,33.30
2023-03-02T13:34:27.684Z,33.40
2023-03-02T13:36:54.963Z,32.70
2023-03-02T13:39:27.778Z,32.70
2023-03-02T13:41:59.469Z,32.40
2023-03-02T13:44:35.775Z,32.00
2023-03-02T13:47:02.860Z,31.50
2023-03-02T13:49:35.230Z,31.60
2023-03-02T13:52:08.219Z,31.10
2023-03-02T13:54:36.559Z,31.00
2023-03-02T13:57:04.735Z,30.90
2023-03-02T13:59:32.268Z,30.70
2023-03-02T14:01:59.166Z,30.60
2023-03-02T14:04:26.028Z,30.50
2023-03-02T14:06:54.417Z,30.60
2023-03-02T14:09:21.645Z,30.60
2023-03-02T14:11:53.301Z,30.70
2023-03-02T14:14:22.624Z,30.80
2023-03-02T14:16:49.813Z,30.80
2023-03-02T14:19:18.335Z,30.90
2023-03-02T14:21:46.415Z,31.20
2023-03-02T14:24:13.387Z,31.30
2023-03-02T14:26:46.199Z,31.40
2023-03-02T14:29:31.444Z,31.50
2023-03-02T14:32:00.372Z,31.40
2023-03-02T14:34:27.203Z,31.40
2023-03-02T14:36:55.912Z,31.40
2023-03-02T14:39:22.985Z,31.40
2023-03-02T14:41:54.200Z,31.50
2023-03-02T14:44:22.027Z,31.70
2023-03-02T14:46:49.006Z,31.70
2023-03-02T14:49:15.712Z,31.80
2023-03-02T14:51:43.545Z,32.30
2023-03-02T14:54:15.199Z,31.80
2023-03-02T14:56:43.033Z,29.20
2023-03-02T14:59:13.698Z,29.20
2023-03-02T15:01:44.327Z,29.30
2023-03-02T15:04:11.173Z,29.40
2023-03-02T15:06:40.152Z,29.40
2023-03-02T15:09:07.667Z,29.40
2023-03-02T15:11:35.002Z,29.50
2023-03-02T15:14:01.956Z,29.50
2023-03-02T15:16:28.845Z,29.50
2023-03-02T15:18:57.235Z,29.60
2023-03-02T15:21:25.591Z,28.90
2023-03-02T15:23:52.313Z,29.20
2023-03-02T15:26:19.172Z,29.30
2023-03-02T15:28:48.993Z,29.30
2023-03-02T15:31:16.993Z,29.50
2023-03-02T15:33:45.552Z,29.30
2023-03-02T15:36:13.263Z,29.50
2023-03-02T15:38:40.302Z,29.40
2023-03-02T15:41:08.807Z,29.60
2023-03-02T15:43:35.536Z,29.70
2023-03-02T15:46:02.430Z,29.80
2023-03-02T15:48:29.907Z,30.00
2023-03-02T15:51:02.096Z,30.10
2023-03-02T15:53:29.734Z,30.30
2023-03-02T15:55:57.046Z,30.60
2023-03-02T15:58:23.975Z,30.90
2023-03-02T16:00:53.450Z,31.30
2023-03-02T16:03:20.461Z,31.40
2023-03-02T16:05:47.311Z,31.50
2023-03-02T16:08:14.135Z,31.80
2023-03-02T16:10:42.927Z,32.00
2023-03-02T16:13:10.811Z,32.40
2023-03-02T16:15:41.930Z,32.40
2023-03-02T16:18:10.116Z,32.40
2023-03-02T16:20:37.756Z,32.60
2023-03-02T16:23:06.266Z,32.80
2023-03-02T16:25:34.531Z,32.80
2023-03-02T16:28:04.486Z,33.00
2023-03-02T16:30:31.586Z,33.10
2023-03-02T16:33:03.401Z,33.20
2023-03-02T16:35:31.687Z,33.30
2023-03-02T16:37:58.411Z,33.50
2023-03-02T16:40:25.348Z,33.90
2023-03-02T16:42:52.217Z,34.30
2023-03-02T16:45:20.326Z,34.80
2023-03-02T16:47:47.473Z,35.10
2023-03-02T16:50:16.508Z,35.40
2023-03-02T16:52:43.713Z,35.60
2023-03-02T16:55:16.876Z,35.80
2023-03-02T16:57:44.722Z,36.10
2023-03-02T17:00:14.584Z,36.30
2023-03-02T17:02:41.494Z,36.50
2023-03-02T17:05:08.912Z,36.70
2023-03-02T17:07:35.862Z,36.90
2023-03-02T17:10:03.522Z,37.10
2023-03-02T17:12:30.284Z,37.30
2023-03-02T17:14:57.042Z,37.40
2023-03-02T17:17:23.885Z,37.60
2023-03-02T17:19:50.665Z,37.70
2023-03-02T17:22:17.542Z,38.00
2023-03-02T17:24:44.337Z,38.20
2023-03-02T17:27:24.210Z,37.20
2023-03-02T17:29:52.423Z,37.60
2023-03-02T17:32:19.282Z,37.90
2023-03-02T17:34:46.800Z,38.00
2023-03-02T17:37:14.212Z,38.30
2023-03-02T17:39:41.128Z,38.50
2023-03-02T17:42:07.871Z,38.70
2023-03-02T17:44:34.774Z,38.90
2023-03-02T17:47:03.854Z,39.10
2023-03-02T17:49:30.973Z,39.20
2023-03-02T17:51:57.962Z,39.30
2023-03-02T17:54:24.699Z,40.20
2023-03-02T17:56:51.505Z,39.60
2023-03-02T17:59:18.250Z,39.80
2023-03-02T18:01:45.116Z,39.90
2023-03-02T18:04:11.936Z,40.10
2023-03-02T18:06:40.289Z,40.30
2023-03-02T18:09:07.143Z,40.40
2023-03-02T18:11:34.075Z,40.40
2023-03-02T18:14:00.832Z,40.60
2023-03-02T18:16:29.137Z,40.70
2023-03-02T18:18:57.444Z,40.90
2023-03-02T18:21:24.307Z,41.10
2023-03-02T18:23:51.127Z,41.20
2023-03-02T18:26:17.884Z,41.30
2023-03-02T18:28:44.732Z,41.40
2023-03-02T18:31:14.117Z,41.50
2023-03-02T18:33:40.824Z,41.70
2023-03-02T18:36:08.053Z,42.00
2023-03-02T18:38:35.413Z,42.00
2023-03-02T18:41:04.121Z,42.10
2023-03-02T18:43:32.771Z,42.20
2023-03-02T18:46:00.569Z,42.30
2023-03-02T18:48:28.018Z,42.40
2023-03-02T18:50:55.112Z,42.50
2023-03-02T18:53:21.841Z,42.50
2023-03-02T18:55:48.884Z,42.60
2023-03-02T18:58:20.611Z,42.70
2023-03-02T19:00:48.106Z,42.90
2023-03-02T19:03:16.564Z,42.00
2023-03-02T19:05:44.673Z,41.40
2023-03-02T19:08:12.141Z,42.10
2023-03-02T19:10:39.695Z,42.30
2023-03-02T19:13:09.188Z,42.50
2023-03-02T19:15:37.142Z,42.60
2023-03-02T19:18:03.960Z,43.00
2023-03-02T19:20:30.698Z,43.00
2023-03-02T19:22:57.726Z,43.10
2023-03-02T19:25:24.468Z,43.20
2023-03-02T19:27:51.355Z,43.40
2023-03-02T19:30:24.367Z,43.40
2023-03-02T19:32:53.962Z,43.60
2023-03-02T19:35:25.731Z,43.60
2023-03-02T19:37:52.600Z,43.80
2023-03-02T19:40:22.914Z,43.80
2023-03-02T19:42:51.571Z,43.80
2023-03-02T19:45:30.223Z,44.00
2023-03-02T19:47:57.825Z,44.00
2023-03-02T19:50:26.453Z,44.20
2023-03-02T19:52:54.788Z,44.30
2023-03-02T19:55:23.618Z,44.40
2023-03-02T19:57:56.394Z,44.40
2023-03-02T20:00:24.145Z,44.70
2023-03-02T20:02:50.931Z,44.60
2023-03-02T20:05:17.897Z,44.70
2023-03-02T20:07:45.029Z,44.80
2023-03-02T20:10:23.593Z,44.70
2023-03-02T20:12:50.291Z,44.90
2023-03-02T20:15:17.627Z,44.80
2023-03-02T20:17:44.357Z,44.90
2023-03-02T20:20:12.286Z,44.90
2023-03-02T20:22:39.078Z,45.00
2023-03-02T20:25:06.470Z,45.00
2023-03-02T20:27:33.208Z,45.00
2023-03-02T20:30:00.070Z,45.10
2023-03-02T20:32:26.821Z,45.20
2023-03-02T20:34:53.568Z,45.30
2023-03-02T20:37:22.538Z,45.30
2023-03-02T20:39:49.550Z,45.30
2023-03-02T20:42:16.289Z,45.30
2023-03-02T20:44:43.133Z,45.30
2023-03-02T20:47:15.109Z,45.40
2023-03-02T20:49:42.485Z,45.50
2023-03-02T20:52:10.960Z,45.40
2023-03-02T20:54:41.566Z,45.50
2023-03-02T20:57:09.026Z,45.50
2023-03-02T20:59:37.706Z,45.60
2023-03-02T21:02:05.297Z,45.50
2023-03-02T21:04:33.265Z,45.60
2023-03-02T21:07:00.828Z,45.60
2023-03-02T21:09:27.676Z,45.70
2023-03-02T21:11:54.811Z,46.40
2023-03-02T21:14:21.657Z,45.80
2023-03-02T21:16:48.409Z,45.80
2023-03-02T21:19:18.003Z,45.80
2023-03-02T21:21:45.108Z,45.80
2023-03-02T21:24:16.656Z,45.90
2023-03-02T21:26:44.756Z,46.00
2023-03-02T21:29:13.116Z,46.00
2023-03-02T21:31:42.158Z,46.10
2023-03-02T21:34:09.224Z,46.10
2023-03-02T21:36:36.953Z,46.10
2023-03-02T21:39:04.831Z,46.10
2023-03-02T21:41:31.722Z,46.20
2023-03-02T21:43:58.571Z,46.20
2023-03-02T21:46:25.363Z,46.30
2023-03-02T21:48:52.997Z,46.30
2023-03-02T21:51:20.121Z,46.30
2023-03-02T21:53:47.279Z,46.30
2023-03-02T21:56:20.579Z,46.40
2023-03-02T21:58:52.819Z,46.50
2023-03-02T22:01:20.548Z,46.50
2023-03-02T22:03:47.424Z,46.50
2023-03-02T22:06:23.192Z,47.10
2023-03-02T22:08:51.164Z,46.60
2023-03-02T22:11:27.480Z,46.50
2023-03-02T22:13:57.209Z,46.60
2023-03-02T22:16:29.220Z,46.60
2023-03-02T22:18:58.093Z,46.80
2023-03-02T22:21:30.863Z,46.70
2023-03-02T22:24:09.834Z,46.70
2023-03-02T22:26:43.107Z,46.90
2023-03-02T22:29:17.196Z,46.80
2023-03-02T22:31:48.930Z,46.80
2023-03-02T22:34:19.992Z,46.90
2023-03-02T22:36:47.547Z,46.80
2023-03-02T22:39:29.707Z,46.90
2023-03-02T22:42:07.071Z,46.90
2023-03-02T22:44:34.287Z,46.90
2023-03-02T22:47:01.606Z,47.00
2023-03-02T22:49:29.921Z,46.90
2023-03-02T22:52:03.385Z,46.90
2023-03-02T22:54:37.755Z,47.10
2023-03-02T22:57:16.969Z,47.20
2023-03-02T22:59:43.746Z,47.20
2023-03-02T23:02:18.302Z,47.20
2023-03-02T23:04:45.773Z,47.30
2023-03-02T23:07:21.013Z,47.30
2023-03-02T23:09:48.221Z,47.30
2023-03-02T23:12:19.697Z,47.30
2023-03-02T23:14:55.116Z,47.40
2023-03-02T23:17:31.691Z,47.30
2023-03-02T23:19:59.528Z,47.40
2023-03-02T23:22:28.619Z,47.30
2023-03-02T23:24:56.079Z,47.40
2023-03-02T23:27:24.298Z,47.40
2023-03-02T23:29:52.822Z,47.40
2023-03-02T23:32:19.923Z,47.40
2023-03-02T23:34:46.906Z,47.40
2023-03-02T23:37:13.618Z,47.40
2023-03-02T23:39:40.338Z,47.50
2023-03-02T23:42:07.093Z,47.60
2023-03-02T23:44:33.821Z,47.50
2023-03-02T23:47:01.292Z,47.60
2023-03-02T23:49:28.074Z,47.60
2023-03-02T23:51:54.763Z,47.50
2023-03-02T23:54:21.507Z,47.50
2023-03-02T23:56:49.588Z,47.60
2023-03-02T23:59:16.267Z,47.60
